Temp: 17.4°C   Baro: 1020.3mb
  Wind: 2.9mph   Dir: SW (230°)
  Rain: 0.6mm (0.0mm/hr)
  Solar: 0W/m2  Hum: 94%
 
Bath Spa Weather Historical Data
 
Daily Summary for August 18, 2018 Units:  Metric    English   Both
Next Day »
Daily Weekly Monthly Yearly Custom
  Current: High: Low: Average:
Temperature: 17.4 °C 20.3 °C 14.9 °C 17.4 °C
Dew Point: 16.4 °C 16.7 °C 13.0 °C 15 °C
Humidity: 94% 94% 74% 86%
Wind Speed: 3.2km/h 22.7km/h 0.0km/h 7.1km/h
Wind Gust: 6.4km/h 25.7km/h - -
Wind directionSW - - West
Pressure: 1020.2 hPa 1021.2 hPa 1019.5 hPa -
Precipitation: 0.5 mm      
Historical Graphs
 
 
Tabular Data for August 18, 2018
Time Temperature Dew Point Pressure Wind direction Wind Speed Wind Gust Humidity Rainfall Rate (Hourly) solar
00:00 15.9 °C 13.0 °C 1020.5 hPa West 6.4 km/h 12.9 km/h 83% 0.0 mm 0.00 W/m2
00:05 15.8 °C 13.1 °C 1020.5 hPa West 9.7 km/h 11.3 km/h 84% 0.0 mm 0.00 W/m2
00:10 15.8 °C 13.1 °C 1020.5 hPa WSW 4.7 km/h 11.3 km/h 84% 0.0 mm 0.00 W/m2
00:15 15.8 °C 13.1 °C 1020.5 hPa WSW 13.0 km/h 16.1 km/h 84% 0.0 mm 0.00 W/m2
00:20 15.8 °C 13.1 °C 1020.5 hPa WSW 3.2 km/h 14.5 km/h 84% 0.0 mm 0.00 W/m2
00:25 15.9 °C 13.2 °C 1020.5 hPa West 11.1 km/h 14.5 km/h 84% 0.0 mm 0.00 W/m2
00:30 15.9 °C 13.2 °C 1020.5 hPa WSW 6.4 km/h 14.5 km/h 84% 0.0 mm 0.00 W/m2
00:35 15.9 °C 13.2 °C 1020.5 hPa WSW 4.7 km/h 12.9 km/h 84% 0.0 mm 0.00 W/m2
00:40 16.0 °C 13.3 °C 1020.5 hPa WSW 13.0 km/h 16.1 km/h 84% 0.0 mm 0.00 W/m2
00:45 16.0 °C 13.1 °C 1020.5 hPa WSW 14.3 km/h 16.1 km/h 83% 0.0 mm 0.00 W/m2
00:50 16.0 °C 13.1 °C 1020.5 hPa WSW 11.1 km/h 14.5 km/h 83% 0.0 mm 0.00 W/m2
00:55 16.1 °C 13.2 °C 1020.5 hPa SW 11.1 km/h 12.9 km/h 83% 0.0 mm 0.00 W/m2
01:00 16.0 °C 13.1 °C 1020.5 hPa WSW 6.4 km/h 20.9 km/h 83% 0.0 mm 0.00 W/m2
01:05 16.0 °C 13.1 °C 1020.5 hPa WSW 13.0 km/h 17.7 km/h 83% 0.0 mm 0.00 W/m2
01:10 16.0 °C 13.3 °C 1020.5 hPa SW 7.9 km/h 16.1 km/h 84% 0.0 mm 0.00 W/m2
01:15 15.9 °C 13.2 °C 1020.5 hPa West 17.7 km/h 22.5 km/h 84% 0.0 mm 0.00 W/m2
01:20 15.9 °C 13.2 °C 1020.2 hPa WSW 14.3 km/h 19.3 km/h 84% 0.0 mm 0.00 W/m2
01:25 15.8 °C 13.3 °C 1020.2 hPa WSW 7.9 km/h 16.1 km/h 85% 0.0 mm 0.00 W/m2
01:30 15.8 °C 13.3 °C 1020.2 hPa WSW 14.3 km/h 17.7 km/h 85% 0.0 mm 0.00 W/m2
01:35 15.8 °C 13.3 °C 1020.2 hPa WSW 14.3 km/h 14.5 km/h 85% 0.0 mm 0.00 W/m2
01:40 15.7 °C 13.4 °C 1020.2 hPa WSW 11.1 km/h 19.3 km/h 86% 0.0 mm 0.00 W/m2
01:45 15.7 °C 13.4 °C 1020.2 hPa WSW 9.7 km/h 16.1 km/h 86% 0.0 mm 0.00 W/m2
01:50 15.7 °C 13.4 °C 1020.2 hPa WSW 13.0 km/h 14.5 km/h 86% 0.0 mm 0.00 W/m2
01:55 15.7 °C 13.4 °C 1020.2 hPa WSW 13.0 km/h 12.9 km/h 86% 0.0 mm 0.00 W/m2
02:00 15.7 °C 13.5 °C 1019.9 hPa SW 7.9 km/h 14.5 km/h 87% 0.0 mm 0.00 W/m2
02:05 15.7 °C 13.5 °C 1019.9 hPa WSW 4.7 km/h 12.9 km/h 87% 0.0 mm 0.00 W/m2
02:10 15.7 °C 13.5 °C 1019.9 hPa WSW 11.1 km/h 12.9 km/h 87% 0.0 mm 0.00 W/m2
02:15 15.7 °C 13.5 °C 1019.9 hPa SW 7.9 km/h 14.5 km/h 87% 0.0 mm 0.00 W/m2
02:20 15.7 °C 13.4 °C 1019.9 hPa West 7.9 km/h 20.9 km/h 86% 0.0 mm 0.00 W/m2
02:25 15.7 °C 13.4 °C 1019.9 hPa SW 9.7 km/h 16.1 km/h 86% 0.0 mm 0.00 W/m2
02:30 15.7 °C 13.4 °C 1019.9 hPa SW 9.7 km/h 17.7 km/h 86% 0.0 mm 0.00 W/m2
02:35 15.7 °C 13.4 °C 1019.9 hPa SW 11.1 km/h 19.3 km/h 86% 0.0 mm 0.00 W/m2
02:40 15.7 °C 13.4 °C 1019.9 hPa WSW 16.3 km/h 20.9 km/h 86% 0.0 mm 0.00 W/m2
02:45 15.7 °C 13.4 °C 1019.9 hPa SW 9.7 km/h 14.5 km/h 86% 0.0 mm 0.00 W/m2
02:50 15.7 °C 13.4 °C 1019.9 hPa WSW 16.3 km/h 16.1 km/h 86% 0.0 mm 0.00 W/m2
02:55 15.6 °C 13.3 °C 1019.9 hPa WSW 11.1 km/h 12.9 km/h 86% 0.0 mm 0.00 W/m2
03:00 15.7 °C 13.5 °C 1019.9 hPa SW 17.7 km/h 25.7 km/h 87% 0.0 mm 0.00 W/m2
03:05 15.6 °C 13.4 °C 1019.9 hPa WSW 6.4 km/h 17.7 km/h 87% 0.0 mm 0.00 W/m2
03:10 15.5 °C 13.3 °C 1019.9 hPa WSW 7.9 km/h 16.1 km/h 87% 0.0 mm 0.00 W/m2
03:15 15.5 °C 13.5 °C 1019.9 hPa WSW 7.9 km/h 12.9 km/h 88% 0.0 mm 0.00 W/m2
03:20 15.4 °C 13.6 °C 1019.9 hPa WSW 7.9 km/h 14.5 km/h 89% 0.0 mm 0.00 W/m2
03:25 15.2 °C 13.6 °C 1019.9 hPa West 7.9 km/h 17.7 km/h 90% 0.0 mm 0.00 W/m2
03:30 15.2 °C 13.7 °C 1019.9 hPa WSW 6.4 km/h 12.9 km/h 91% 0.0 mm 0.00 W/m2
03:35 15.1 °C 13.6 °C 1019.9 hPa WSW 6.4 km/h 11.3 km/h 91% 0.0 mm 0.00 W/m2
03:40 15.0 °C 13.5 °C 1019.9 hPa WNW 9.7 km/h 16.1 km/h 91% 0.0 mm 0.00 W/m2
03:45 15.0 °C 13.5 °C 1019.9 hPa WSW 7.9 km/h 14.5 km/h 91% 0.0 mm 0.00 W/m2
03:50 14.9 °C 13.6 °C 1019.9 hPa WSW 6.4 km/h 14.5 km/h 92% 0.0 mm 0.00 W/m2
03:56 14.9 °C 13.6 °C 1019.9 hPa SW 4.7 km/h 9.7 km/h 92% 0.0 mm 0.00 W/m2
04:01 14.9 °C 13.6 °C 1019.9 hPa WSW 6.4 km/h 8.0 km/h 92% 0.0 mm 0.00 W/m2
04:06 15.0 °C 13.7 °C 1019.5 hPa SW 4.7 km/h 11.3 km/h 92% 0.0 mm 0.00 W/m2
04:11 14.9 °C 13.6 °C 1019.5 hPa West 3.2 km/h 4.8 km/h 92% 0.0 mm 0.00 W/m2
04:16 15.0 °C 13.9 °C 1019.5 hPa West 3.2 km/h 9.7 km/h 93% 0.0 mm 0.00 W/m2
04:21 15.0 °C 13.9 °C 1019.5 hPa WSW 4.7 km/h 8.0 km/h 93% 0.0 mm 0.00 W/m2
04:26 15.0 °C 13.9 °C 1019.5 hPa West 3.2 km/h 8.0 km/h 93% 0.0 mm 0.00 W/m2
04:31 15.1 °C 14.0 °C 1019.9 hPa WSW 4.7 km/h 9.7 km/h 93% 0.0 mm 0.00 W/m2
04:36 15.2 °C 14.1 °C 1019.9 hPa WSW 4.7 km/h 6.4 km/h 93% 0.0 mm 0.00 W/m2
04:41 15.2 °C 14.1 °C 1019.9 hPa WSW 3.2 km/h 11.3 km/h 93% 0.0 mm 0.00 W/m2
04:46 15.2 °C 14.1 °C 1019.9 hPa West 7.9 km/h 8.0 km/h 93% 0.0 mm 0.00 W/m2
04:51 15.2 °C 14.1 °C 1019.9 hPa West 9.7 km/h 11.3 km/h 93% 0.3 mm 0.00 W/m2
04:56 15.2 °C 14.1 °C 1019.9 hPa West 3.2 km/h 6.4 km/h 93% 0.5 mm 0.00 W/m2
05:01 15.1 °C 14.0 °C 1019.9 hPa West 7.9 km/h 8.0 km/h 93% 0.5 mm 0.00 W/m2
05:06 15.1 °C 14.0 °C 1019.9 hPa West 1.4 km/h 8.0 km/h 93% 0.5 mm 0.00 W/m2
05:11 15.2 °C 14.2 °C 1019.9 hPa West 3.2 km/h 8.0 km/h 94% 0.5 mm 0.00 W/m2
05:16 15.2 °C 14.2 °C 1019.5 hPa West 1.4 km/h 4.8 km/h 94% 0.5 mm 0.00 W/m2
05:21 15.2 °C 14.2 °C 1019.9 hPa West 3.2 km/h 4.8 km/h 94% 0.5 mm 0.00 W/m2
05:26 15.2 °C 14.2 °C 1019.9 hPa Calm   3.2 km/h 94% 0.5 mm 0.00 W/m2
05:31 15.2 °C 14.2 °C 1019.9 hPa Calm     94% 0.5 mm 0.00 W/m2
05:36 15.3 °C 14.3 °C 1019.9 hPa Calm   3.2 km/h 94% 0.5 mm 0.00 W/m2
05:41 15.3 °C 14.3 °C 1019.9 hPa West 3.2 km/h 3.2 km/h 94% 0.5 mm 0.00 W/m2
05:46 15.4 °C 14.4 °C 1019.9 hPa West 3.2 km/h 11.3 km/h 94% 0.5 mm 0.00 W/m2
05:51 15.4 °C 14.4 °C 1019.9 hPa WSW 3.2 km/h 11.3 km/h 94% 0.3 mm 0.00 W/m2
05:56 15.4 °C 14.4 °C 1019.9 hPa WSW 3.2 km/h 14.5 km/h 94% 0.0 mm 0.00 W/m2
06:01 15.5 °C 14.4 °C 1019.9 hPa West 6.4 km/h 9.7 km/h 93% 0.0 mm 0.00 W/m2
06:06 15.4 °C 14.3 °C 1019.5 hPa WSW 11.1 km/h 11.3 km/h 93% 0.0 mm 0.00 W/m2
06:11 15.4 °C 14.3 °C 1019.9 hPa WSW 6.4 km/h 9.7 km/h 93% 0.0 mm 0.00 W/m2
06:16 15.4 °C 14.3 °C 1019.9 hPa WSW 3.2 km/h 4.8 km/h 93% 0.0 mm 0.00 W/m2
06:21 15.4 °C 14.3 °C 1019.9 hPa WSW 1.4 km/h 6.4 km/h 93% 0.0 mm 0.00 W/m2
06:26 15.4 °C 14.3 °C 1019.9 hPa WSW 3.2 km/h 3.2 km/h 93% 0.0 mm 7.00 W/m2
06:31 15.4 °C 14.3 °C 1019.9 hPa West 4.7 km/h 9.7 km/h 93% 0.0 mm 9.00 W/m2
06:36 15.5 °C 14.4 °C 1019.9 hPa West 1.4 km/h 8.0 km/h 93% 0.0 mm 14.00 W/m2
06:41 15.5 °C 14.4 °C 1019.9 hPa West 6.4 km/h 9.7 km/h 93% 0.0 mm 19.00 W/m2
06:46 15.5 °C 14.4 °C 1019.9 hPa West 7.9 km/h 9.7 km/h 93% 0.0 mm 23.00 W/m2
06:51 15.5 °C 14.4 °C 1019.9 hPa West 3.2 km/h 11.3 km/h 93% 0.0 mm 19.00 W/m2
06:56 15.5 °C 14.2 °C 1020.2 hPa WSW 4.7 km/h 9.7 km/h 92% 0.0 mm 19.00 W/m2
07:01 15.6 °C 14.3 °C 1019.9 hPa WSW 4.7 km/h 11.3 km/h 92% 0.0 mm 28.00 W/m2
07:06 15.7 °C 14.4 °C 1019.9 hPa West 9.7 km/h 11.3 km/h 92% 0.0 mm 25.00 W/m2
07:11 15.7 °C 14.4 °C 1020.2 hPa WSW 1.4 km/h 12.9 km/h 92% 0.0 mm 26.00 W/m2
07:16 15.7 °C 14.4 °C 1020.2 hPa SW 7.9 km/h 9.7 km/h 92% 0.0 mm 35.00 W/m2
07:21 15.8 °C 14.5 °C 1020.2 hPa West 1.4 km/h 6.4 km/h 92% 0.0 mm 32.00 W/m2
07:26 15.8 °C 14.3 °C 1020.2 hPa WSW 7.9 km/h 11.3 km/h 91% 0.0 mm 37.00 W/m2
07:31 15.8 °C 14.3 °C 1020.2 hPa WSW 7.9 km/h 11.3 km/h 91% 0.0 mm 37.00 W/m2
07:36 15.9 °C 14.4 °C 1020.2 hPa SW 6.4 km/h 14.5 km/h 91% 0.0 mm 33.00 W/m2
07:41 15.9 °C 14.3 °C 1020.2 hPa SSW 9.7 km/h 11.3 km/h 90% 0.0 mm 30.00 W/m2
07:46 15.9 °C 14.3 °C 1020.2 hPa Calm   9.7 km/h 90% 0.0 mm 40.00 W/m2
07:51 16.0 °C 14.4 °C 1020.2 hPa WSW 6.4 km/h 11.3 km/h 90% 0.0 mm 39.00 W/m2
07:56 16.0 °C 14.2 °C 1020.2 hPa WSW 6.4 km/h 11.3 km/h 89% 0.0 mm 44.00 W/m2
08:01 16.0 °C 14.2 °C 1020.2 hPa West 1.4 km/h 8.0 km/h 89% 0.0 mm 42.00 W/m2
08:06 16.0 °C 14.2 °C 1020.2 hPa West 3.2 km/h 4.8 km/h 89% 0.0 mm 42.00 W/m2
08:11 16.0 °C 14.2 °C 1020.5 hPa WSW 6.4 km/h 11.3 km/h 89% 0.0 mm 51.00 W/m2
08:16 16.0 °C 14.2 °C 1020.5 hPa WSW 3.2 km/h 6.4 km/h 89% 0.0 mm 47.00 W/m2
08:21 16.1 °C 14.1 °C 1020.5 hPa WSW 3.2 km/h 12.9 km/h 88% 0.0 mm 51.00 W/m2
08:26 16.2 °C 14.2 °C 1020.5 hPa West 11.1 km/h 11.3 km/h 88% 0.0 mm 67.00 W/m2
08:31 16.2 °C 14.2 °C 1020.5 hPa West 14.3 km/h 14.5 km/h 88% 0.0 mm 69.00 W/m2
08:36 16.2 °C 14.2 °C 1020.5 hPa WSW 4.7 km/h 12.9 km/h 88% 0.0 mm 72.00 W/m2
08:41 16.3 °C 14.3 °C 1020.5 hPa WSW 4.7 km/h 11.3 km/h 88% 0.0 mm 69.00 W/m2
08:46 16.3 °C 14.3 °C 1020.5 hPa SW 11.1 km/h 11.3 km/h 88% 0.0 mm 62.00 W/m2
08:51 16.4 °C 14.2 °C 1020.5 hPa WSW 14.3 km/h 14.5 km/h 87% 0.0 mm 58.00 W/m2
08:56 16.4 °C 14.2 °C 1020.5 hPa SW 3.2 km/h 9.7 km/h 87% 0.0 mm 35.00 W/m2
09:01 16.4 °C 14.2 °C 1020.5 hPa WSW 6.4 km/h 12.9 km/h 87% 0.0 mm 47.00 W/m2
09:06 16.3 °C 14.1 °C 1020.5 hPa WNW 6.4 km/h 20.9 km/h 87% 0.0 mm 47.00 W/m2
09:11 16.2 °C 14.2 °C 1020.5 hPa WSW 6.4 km/h 19.3 km/h 88% 0.3 mm 62.00 W/m2
09:16 16.1 °C 14.3 °C 1020.9 hPa WSW 6.4 km/h 8.0 km/h 89% 0.3 mm 62.00 W/m2
09:21 16.0 °C 14.2 °C 1020.9 hPa West 4.7 km/h 14.5 km/h 89% 0.3 mm 60.00 W/m2
09:26 16.0 °C 14.4 °C 1020.9 hPa WSW 6.4 km/h 12.9 km/h 90% 0.3 mm 70.00 W/m2
09:31 15.9 °C 14.3 °C 1020.9 hPa West 7.9 km/h 9.7 km/h 90% 0.3 mm 62.00 W/m2
09:36 15.9 °C 14.4 °C 1020.9 hPa West 4.7 km/h 9.7 km/h 91% 0.3 mm 72.00 W/m2
09:41 15.8 °C 14.3 °C 1020.9 hPa WNW 6.4 km/h 8.0 km/h 91% 0.3 mm 65.00 W/m2
09:46 15.8 °C 14.5 °C 1020.9 hPa WNW 6.4 km/h 11.3 km/h 92% 0.3 mm 69.00 W/m2
09:51 15.8 °C 14.5 °C 1020.9 hPa WNW 1.4 km/h 8.0 km/h 92% 0.3 mm 77.00 W/m2
09:56 15.9 °C 14.6 °C 1020.9 hPa WNW 3.2 km/h 4.8 km/h 92% 0.3 mm 91.00 W/m2
10:02 15.9 °C 14.8 °C 1020.9 hPa WNW 1.4 km/h 6.4 km/h 93% 0.3 mm 116.00 W/m2
10:07 15.9 °C 14.8 °C 1020.9 hPa West 4.7 km/h 11.3 km/h 93% 0.3 mm 127.00 W/m2
10:12 16.0 °C 14.9 °C 1020.9 hPa WNW 4.7 km/h 9.7 km/h 93% 0.0 mm 91.00 W/m2
10:17 16.0 °C 14.7 °C 1020.9 hPa West 9.7 km/h 12.9 km/h 92% 0.0 mm 83.00 W/m2
10:22 16.2 °C 14.9 °C 1020.9 hPa West 11.1 km/h 14.5 km/h 92% 0.0 mm 105.00 W/m2
10:27 16.3 °C 15.0 °C 1020.9 hPa Calm   11.3 km/h 92% 0.0 mm 135.00 W/m2
10:32 16.4 °C 14.9 °C 1020.9 hPa West 7.9 km/h 19.3 km/h 91% 0.0 mm 148.00 W/m2
10:37 16.6 °C 15.1 °C 1020.9 hPa SW 6.4 km/h 11.3 km/h 91% 0.0 mm 178.00 W/m2
10:42 16.8 °C 15.1 °C 1020.9 hPa WSW 9.7 km/h 16.1 km/h 90% 0.0 mm 225.00 W/m2
10:47 17.0 °C 15.0 °C 1020.9 hPa SW 11.1 km/h 11.3 km/h 88% 0.0 mm 185.00 W/m2
10:52 17.1 °C 15.1 °C 1020.9 hPa SW 4.7 km/h 11.3 km/h 88% 0.0 mm 172.00 W/m2
10:57 17.2 °C 15.0 °C 1020.9 hPa WSW 14.3 km/h 14.5 km/h 87% 0.0 mm 178.00 W/m2
11:02 17.3 °C 14.9 °C 1020.9 hPa WNW 6.4 km/h 12.9 km/h 86% 0.0 mm 174.00 W/m2
11:07 17.4 °C 15.0 °C 1020.9 hPa SW 14.3 km/h 14.5 km/h 86% 0.0 mm 160.00 W/m2
11:12 17.3 °C 14.6 °C 1020.9 hPa SSW 11.1 km/h 17.7 km/h 84% 0.0 mm 162.00 W/m2
11:17 17.4 °C 14.7 °C 1020.9 hPa SW 4.7 km/h 12.9 km/h 84% 0.0 mm 179.00 W/m2
11:22 17.5 °C 14.8 °C 1020.9 hPa West 6.4 km/h 12.9 km/h 84% 0.0 mm 181.00 W/m2
11:27 17.6 °C 14.7 °C 1020.9 hPa WSW 6.4 km/h 11.3 km/h 83% 0.0 mm 199.00 W/m2
11:32 17.8 °C 14.9 °C 1020.9 hPa West 4.7 km/h 8.0 km/h 83% 0.0 mm 211.00 W/m2
11:37 17.8 °C 14.7 °C 1020.9 hPa WSW 6.4 km/h 17.7 km/h 82% 0.0 mm 142.00 W/m2
11:42 17.9 °C 14.8 °C 1020.9 hPa West 11.1 km/h 16.1 km/h 82% 0.0 mm 167.00 W/m2
11:47 17.8 °C 14.5 °C 1020.9 hPa West 16.3 km/h 16.1 km/h 81% 0.0 mm 155.00 W/m2
11:52 17.9 °C 14.6 °C 1020.9 hPa WNW 13.0 km/h 14.5 km/h 81% 0.0 mm 202.00 W/m2
11:57 17.8 °C 14.5 °C 1020.9 hPa WSW 9.7 km/h 16.1 km/h 81% 0.0 mm 178.00 W/m2
12:02 17.9 °C 14.6 °C 1020.9 hPa West 9.7 km/h 16.1 km/h 81% 0.0 mm 176.00 W/m2
12:07 18.0 °C 14.5 °C 1021.2 hPa West 7.9 km/h 16.1 km/h 80% 0.0 mm 169.00 W/m2
12:12 18.1 °C 14.6 °C 1021.2 hPa WSW 7.9 km/h 14.5 km/h 80% 0.0 mm 171.00 W/m2
12:17 18.2 °C 14.7 °C 1021.2 hPa WSW 13.0 km/h 16.1 km/h 80% 0.0 mm 206.00 W/m2
12:22 18.3 °C 14.8 °C 1021.2 hPa SW 6.4 km/h 14.5 km/h 80% 0.0 mm 255.00 W/m2
12:27 18.4 °C 14.9 °C 1021.2 hPa West 16.3 km/h 19.3 km/h 80% 0.0 mm 232.00 W/m2
12:32 18.4 °C 14.7 °C 1021.2 hPa West 11.1 km/h 12.9 km/h 79% 0.0 mm 156.00 W/m2
12:37 18.5 °C 14.8 °C 1020.9 hPa West 11.1 km/h 11.3 km/h 79% 0.0 mm 186.00 W/m2
12:42 18.6 °C 14.9 °C 1021.2 hPa WNW 4.7 km/h 16.1 km/h 79% 0.0 mm 185.00 W/m2
12:47 18.7 °C 15.0 °C 1020.9 hPa West 7.9 km/h 11.3 km/h 79% 0.0 mm 287.00 W/m2
12:52 18.8 °C 15.1 °C 1021.2 hPa West 13.0 km/h 16.1 km/h 79% 0.0 mm 308.00 W/m2
12:57 18.9 °C 15.2 °C 1021.2 hPa West 9.7 km/h 12.9 km/h 79% 0.0 mm 183.00 W/m2
13:02 18.9 °C 15.2 °C 1021.2 hPa WSW 9.7 km/h 17.7 km/h 79% 0.0 mm 274.00 W/m2
13:07 19.0 °C 15.3 °C 1021.2 hPa WSW 11.1 km/h 12.9 km/h 79% 0.0 mm 316.00 W/m2
13:12 19.3 °C 15.2 °C 1020.9 hPa WNW 3.2 km/h 14.5 km/h 77% 0.0 mm 450.00 W/m2
13:17 19.7 °C 15.1 °C 1020.9 hPa NW 7.9 km/h 14.5 km/h 75% 0.0 mm 512.00 W/m2
13:22 20.0 °C 15.4 °C 1020.9 hPa WNW 11.1 km/h 17.7 km/h 75% 0.0 mm 431.00 W/m2
13:27 19.8 °C 15.0 °C 1020.9 hPa West 13.0 km/h 19.3 km/h 74% 0.0 mm 179.00 W/m2
13:32 19.6 °C 14.8 °C 1020.9 hPa West 16.3 km/h 24.1 km/h 74% 0.0 mm 193.00 W/m2
13:37 19.5 °C 14.9 °C 1020.9 hPa WNW 9.7 km/h 17.7 km/h 75% 0.0 mm 260.00 W/m2
13:42 19.6 °C 15.3 °C 1020.9 hPa West 7.9 km/h 12.9 km/h 76% 0.0 mm 292.00 W/m2
13:47 19.9 °C 15.5 °C 1020.9 hPa WNW 16.3 km/h 20.9 km/h 76% 0.0 mm 336.00 W/m2
13:52 19.8 °C 15.4 °C 1020.9 hPa WNW 22.7 km/h 25.7 km/h 76% 0.0 mm 306.00 W/m2
13:57 19.8 °C 15.7 °C 1020.9 hPa WNW 9.7 km/h 22.5 km/h 77% 0.0 mm 325.00 W/m2
14:02 19.7 °C 15.3 °C 1020.9 hPa West 22.7 km/h 22.5 km/h 76% 0.0 mm 200.00 W/m2
14:07 19.6 °C 15.5 °C 1020.9 hPa West 7.9 km/h 24.1 km/h 77% 0.0 mm 151.00 W/m2
14:12 19.5 °C 15.6 °C 1020.9 hPa WNW 7.9 km/h 20.9 km/h 78% 0.0 mm 230.00 W/m2
14:17 19.6 °C 15.9 °C 1020.9 hPa West 13.0 km/h 17.7 km/h 79% 0.0 mm 202.00 W/m2
14:22 19.8 °C 15.9 °C 1020.9 hPa West 14.3 km/h 16.1 km/h 78% 0.0 mm 190.00 W/m2
14:27 19.8 °C 15.9 °C 1020.9 hPa West 7.9 km/h 19.3 km/h 78% 0.0 mm 149.00 W/m2
14:32 19.7 °C 15.8 °C 1020.5 hPa West 17.7 km/h 19.3 km/h 78% 0.0 mm 176.00 W/m2
14:37 19.8 °C 15.9 °C 1020.5 hPa WNW 20.9 km/h 20.9 km/h 78% 0.0 mm 441.00 W/m2
14:42 19.9 °C 15.9 °C 1020.5 hPa WNW 13.0 km/h 20.9 km/h 78% 0.0 mm 285.00 W/m2
14:47 19.9 °C 15.7 °C 1020.5 hPa WNW 17.7 km/h 25.7 km/h 77% 0.0 mm 288.00 W/m2
14:52 19.9 °C 15.7 °C 1020.5 hPa West 9.7 km/h 20.9 km/h 77% 0.0 mm 285.00 W/m2
14:57 20.0 °C 15.8 °C 1020.5 hPa West 17.7 km/h 20.9 km/h 77% 0.0 mm 302.00 W/m2
15:02 20.1 °C 15.9 °C 1020.5 hPa West 7.9 km/h 20.9 km/h 77% 0.0 mm 271.00 W/m2
15:07 20.1 °C 15.9 °C 1020.5 hPa WNW 4.7 km/h 24.1 km/h 77% 0.0 mm 246.00 W/m2
15:12 20.1 °C 15.9 °C 1020.5 hPa WSW 9.7 km/h 14.5 km/h 77% 0.0 mm 139.00 W/m2
15:17 20.1 °C 15.9 °C 1020.5 hPa WNW 14.3 km/h 19.3 km/h 77% 0.0 mm 207.00 W/m2
15:22 20.1 °C 16.1 °C 1020.5 hPa NW 9.7 km/h 17.7 km/h 78% 0.0 mm 125.00 W/m2
15:27 19.8 °C 15.9 °C 1020.5 hPa WNW 13.0 km/h 19.3 km/h 78% 0.0 mm 125.00 W/m2
15:32 19.8 °C 16.1 °C 1020.5 hPa NW 6.4 km/h 17.7 km/h 79% 0.0 mm 163.00 W/m2
15:37 19.8 °C 16.1 °C 1020.5 hPa NW 13.0 km/h 14.5 km/h 79% 0.0 mm 285.00 W/m2
15:42 20.0 °C 16.0 °C 1020.5 hPa West 7.9 km/h 11.3 km/h 78% 0.0 mm 424.00 W/m2
15:47 20.3 °C 16.1 °C 1020.5 hPa West 4.7 km/h 9.7 km/h 77% 0.0 mm 236.00 W/m2
15:52 20.3 °C 16.1 °C 1020.5 hPa West 13.0 km/h 16.1 km/h 77% 0.0 mm 128.00 W/m2
15:57 20.3 °C 16.1 °C 1020.5 hPa WSW 1.4 km/h 11.3 km/h 77% 0.0 mm 137.00 W/m2
16:02 20.2 °C 16.0 °C 1020.5 hPa WSW 6.4 km/h 9.7 km/h 77% 0.0 mm 221.00 W/m2
16:07 20.2 °C 16.0 °C 1020.5 hPa West 9.7 km/h 14.5 km/h 77% 0.0 mm 116.00 W/m2
16:12 20.1 °C 15.9 °C 1020.5 hPa WNW 9.7 km/h 12.9 km/h 77% 0.0 mm 216.00 W/m2
16:17 20.2 °C 16.2 °C 1020.5 hPa WSW 13.0 km/h 14.5 km/h 78% 0.0 mm 179.00 W/m2
16:22 20.0 °C 16.0 °C 1020.5 hPa SW 7.9 km/h 19.3 km/h 78% 0.0 mm 155.00 W/m2
16:27 19.9 °C 15.9 °C 1020.5 hPa SW 7.9 km/h 16.1 km/h 78% 0.0 mm 139.00 W/m2
16:32 19.9 °C 15.9 °C 1020.5 hPa WSW 3.2 km/h 11.3 km/h 78% 0.0 mm 102.00 W/m2
16:37 19.9 °C 16.1 °C 1020.5 hPa SW 7.9 km/h 14.5 km/h 79% 0.0 mm 104.00 W/m2
16:42 19.9 °C 16.1 °C 1020.5 hPa SW 9.7 km/h 14.5 km/h 79% 0.0 mm 121.00 W/m2
16:47 19.9 °C 16.1 °C 1020.5 hPa SW 4.7 km/h 11.3 km/h 79% 0.0 mm 132.00 W/m2
16:52 20.0 °C 16.2 °C 1020.5 hPa WSW 3.2 km/h 9.7 km/h 79% 0.0 mm 148.00 W/m2
16:57 20.0 °C 16.2 °C 1020.5 hPa WNW 1.4 km/h 11.3 km/h 79% 0.0 mm 148.00 W/m2
17:02 20.1 °C 16.3 °C 1020.5 hPa West 16.3 km/h 16.1 km/h 79% 0.0 mm 105.00 W/m2
17:07 20.2 °C 16.4 °C 1020.5 hPa WSW 4.7 km/h 8.0 km/h 79% 0.0 mm 125.00 W/m2
17:12 20.2 °C 16.4 °C 1020.2 hPa WNW 6.4 km/h 14.5 km/h 79% 0.0 mm 120.00 W/m2
17:17 20.2 °C 16.4 °C 1020.2 hPa West 4.7 km/h 11.3 km/h 79% 0.0 mm 125.00 W/m2
17:22 20.1 °C 16.5 °C 1020.2 hPa West 7.9 km/h 9.7 km/h 80% 0.0 mm 109.00 W/m2
17:27 20.1 °C 16.5 °C 1020.2 hPa NW 14.3 km/h 14.5 km/h 80% 0.0 mm 88.00 W/m2
17:32 20.0 °C 16.2 °C 1020.2 hPa WNW 11.1 km/h 14.5 km/h 79% 0.0 mm 98.00 W/m2
17:37 20.0 °C 16.2 °C 1020.2 hPa West 6.4 km/h 12.9 km/h 79% 0.0 mm 93.00 W/m2
17:42 20.0 °C 16.2 °C 1020.2 hPa WSW 4.7 km/h 16.1 km/h 79% 0.0 mm 70.00 W/m2
17:47 20.0 °C 16.2 °C 1020.2 hPa WNW 7.9 km/h 12.9 km/h 79% 0.0 mm 63.00 W/m2
17:53 20.0 °C 16.2 °C 1020.2 hPa WNW 13.0 km/h 20.9 km/h 79% 0.0 mm 62.00 W/m2
17:58 19.9 °C 16.1 °C 1020.2 hPa West 6.4 km/h 8.0 km/h 79% 0.0 mm 67.00 W/m2
18:03 19.9 °C 16.1 °C 1020.5 hPa WNW 9.7 km/h 12.9 km/h 79% 0.0 mm 79.00 W/m2
18:08 19.9 °C 16.3 °C 1020.5 hPa WSW 6.4 km/h 6.4 km/h 80% 0.0 mm 76.00 W/m2
18:13 20.0 °C 16.4 °C 1020.5 hPa WSW 4.7 km/h 4.8 km/h 80% 0.0 mm 83.00 W/m2
18:18 20.0 °C 16.2 °C 1020.5 hPa WNW 7.9 km/h 11.3 km/h 79% 0.0 mm 47.00 W/m2
18:23 19.8 °C 16.2 °C 1020.5 hPa West 7.9 km/h 11.3 km/h 80% 0.0 mm 46.00 W/m2
18:28 19.9 °C 16.3 °C 1020.5 hPa WSW 4.7 km/h 8.0 km/h 80% 0.0 mm 105.00 W/m2
18:33 19.8 °C 16.4 °C 1020.5 hPa West 14.5 km/h 14.5 km/h 81% 0.0 mm 56.00 W/m2
18:38 19.7 °C 16.3 °C 1020.2 hPa WNW 11.1 km/h 14.5 km/h 81% 0.0 mm 53.00 W/m2
18:43 19.5 °C 16.2 °C 1020.5 hPa NW 9.7 km/h 17.7 km/h 81% 0.0 mm 70.00 W/m2
18:48 19.5 °C 16.3 °C 1020.5 hPa WSW 6.4 km/h 17.7 km/h 82% 0.0 mm 63.00 W/m2
18:53 19.5 °C 16.3 °C 1020.5 hPa West 4.7 km/h 12.9 km/h 82% 0.0 mm 54.00 W/m2
18:58 19.5 °C 16.3 °C 1020.2 hPa WSW 6.4 km/h 8.0 km/h 82% 0.0 mm 44.00 W/m2
19:03 19.5 °C 16.3 °C 1020.2 hPa WSW 6.4 km/h 6.4 km/h 82% 0.0 mm 44.00 W/m2
19:08 19.4 °C 16.4 °C 1020.5 hPa West 7.9 km/h 12.9 km/h 83% 0.0 mm 40.00 W/m2
19:13 19.2 °C 16.2 °C 1020.5 hPa West 3.2 km/h 11.3 km/h 83% 0.0 mm 37.00 W/m2
19:18 19.2 °C 16.4 °C 1020.5 hPa West 6.4 km/h 8.0 km/h 84% 0.0 mm 30.00 W/m2
19:23 19.0 °C 16.2 °C 1020.5 hPa West 13.0 km/h 14.5 km/h 84% 0.0 mm 25.00 W/m2
19:28 18.9 °C 16.3 °C 1020.2 hPa WSW 6.4 km/h 9.7 km/h 85% 0.0 mm 26.00 W/m2
19:33 18.9 °C 16.3 °C 1020.2 hPa WSW 3.2 km/h 6.4 km/h 85% 0.0 mm 21.00 W/m2
19:38 18.8 °C 16.4 °C 1020.2 hPa West 4.7 km/h 9.7 km/h 86% 0.0 mm 19.00 W/m2
19:43 18.8 °C 16.4 °C 1020.2 hPa West 4.7 km/h 4.8 km/h 86% 0.0 mm 14.00 W/m2
19:48 18.8 °C 16.4 °C 1020.2 hPa West 1.4 km/h 6.4 km/h 86% 0.0 mm 7.00 W/m2
19:53 18.7 °C 16.3 °C 1020.2 hPa West 4.7 km/h 6.4 km/h 86% 0.0 mm 5.00 W/m2
19:58 18.7 °C 16.5 °C 1020.2 hPa Calm   1.6 km/h 87% 0.0 mm 5.00 W/m2
20:03 18.7 °C 16.5 °C 1020.2 hPa Calm   1.6 km/h 87% 0.0 mm 0.00 W/m2
20:08 18.7 °C 16.5 °C 1020.2 hPa Calm   3.2 km/h 87% 0.0 mm 0.00 W/m2
20:13 18.7 °C 16.5 °C 1020.2 hPa West 3.2 km/h 4.8 km/h 87% 0.0 mm 0.00 W/m2
20:18 18.7 °C 16.5 °C 1020.5 hPa West 1.4 km/h 6.4 km/h 87% 0.0 mm 0.00 W/m2
20:23 18.7 °C 16.5 °C 1020.5 hPa West 4.7 km/h 6.4 km/h 87% 0.0 mm 0.00 W/m2
20:28 18.7 °C 16.5 °C 1020.5 hPa West 1.4 km/h 4.8 km/h 87% 0.0 mm 0.00 W/m2
20:33 18.7 °C 16.5 °C 1020.5 hPa Calm   4.8 km/h 87% 0.0 mm 0.00 W/m2
20:38 18.7 °C 16.7 °C 1020.5 hPa Calm   3.2 km/h 88% 0.0 mm 0.00 W/m2
20:43 18.7 °C 16.7 °C 1020.5 hPa West 3.2 km/h 4.8 km/h 88% 0.0 mm 0.00 W/m2
20:48 18.7 °C 16.7 °C 1020.5 hPa West 1.4 km/h 4.8 km/h 88% 0.0 mm 0.00 W/m2
20:53 18.7 °C 16.7 °C 1020.5 hPa Calm   4.8 km/h 88% 0.0 mm 0.00 W/m2
20:58 18.7 °C 16.7 °C 1020.5 hPa West 3.2 km/h 6.4 km/h 88% 0.0 mm 0.00 W/m2
21:03 18.6 °C 16.6 °C 1020.5 hPa West 3.2 km/h 4.8 km/h 88% 0.0 mm 0.00 W/m2
21:08 18.5 °C 16.5 °C 1020.5 hPa West 4.7 km/h 9.7 km/h 88% 0.0 mm 0.00 W/m2
21:13 18.3 °C 16.5 °C 1020.5 hPa West 1.4 km/h 9.7 km/h 89% 0.0 mm 0.00 W/m2
21:18 18.1 °C 16.4 °C 1020.5 hPa West 3.2 km/h 3.2 km/h 90% 0.0 mm 0.00 W/m2
21:23 18.0 °C 16.3 °C 1020.5 hPa Calm   4.8 km/h 90% 0.0 mm 0.00 W/m2
21:28 17.9 °C 16.4 °C 1020.5 hPa West 7.9 km/h 8.0 km/h 91% 0.0 mm 0.00 W/m2
21:33 17.7 °C 16.2 °C 1020.5 hPa Calm   4.8 km/h 91% 0.0 mm 0.00 W/m2
21:38 17.7 °C 16.2 °C 1020.5 hPa Calm   4.8 km/h 91% 0.0 mm 0.00 W/m2
21:43 17.7 °C 16.4 °C 1020.5 hPa Calm   1.6 km/h 92% 0.0 mm 0.00 W/m2
21:48 17.6 °C 16.3 °C 1020.5 hPa Calm   1.6 km/h 92% 0.0 mm 0.00 W/m2
21:53 17.5 °C 16.2 °C 1020.5 hPa West 3.2 km/h 3.2 km/h 92% 0.0 mm 0.00 W/m2
21:58 17.5 °C 16.4 °C 1020.5 hPa Calm   1.6 km/h 93% 0.0 mm 0.00 W/m2
22:03 17.5 °C 16.4 °C 1020.5 hPa Calm   3.2 km/h 93% 0.0 mm 0.00 W/m2
22:08 17.5 °C 16.4 °C 1020.5 hPa Calm   3.2 km/h 93% 0.0 mm 0.00 W/m2
22:13 17.5 °C 16.4 °C 1020.5 hPa Calm   3.2 km/h 93% 0.0 mm 0.00 W/m2
22:18 17.5 °C 16.5 °C 1020.5 hPa West 1.4 km/h 1.6 km/h 94% 0.0 mm 0.00 W/m2
22:23 17.5 °C 16.5 °C 1020.5 hPa SW 7.9 km/h 8.0 km/h 94% 0.0 mm 0.00 W/m2
22:28 17.5 °C 16.5 °C 1020.5 hPa SW 3.2 km/h 4.8 km/h 94% 0.0 mm 0.00 W/m2
22:33 17.5 °C 16.5 °C 1020.5 hPa Calm   6.4 km/h 94% 0.0 mm 0.00 W/m2
22:38 17.4 °C 16.4 °C 1020.2 hPa SW 1.4 km/h 6.4 km/h 94% 0.0 mm 0.00 W/m2
22:43 17.4 °C 16.4 °C 1020.5 hPa SW 3.2 km/h 4.8 km/h 94% 0.0 mm 0.00 W/m2
22:48 17.4 °C 16.4 °C 1020.5 hPa SW 3.2 km/h 4.8 km/h 94% 0.0 mm 0.00 W/m2
22:53 17.4 °C 16.4 °C 1020.2 hPa SW 3.2 km/h 6.4 km/h 94% 0.0 mm 0.00 W/m2
22:58 17.4 °C 16.4 °C 1020.2 hPa SW 9.7 km/h 11.3 km/h 94% 0.0 mm 0.00 W/m2
23:03 17.3 °C 16.3 °C 1020.2 hPa SW 3.2 km/h 8.0 km/h 94% 0.0 mm 0.00 W/m2
23:08 17.4 °C 16.4 °C 1020.2 hPa SW 1.4 km/h 8.0 km/h 94% 0.0 mm 0.00 W/m2
23:13 17.4 °C 16.4 °C 1020.2 hPa Calm   3.2 km/h 94% 0.0 mm 0.00 W/m2
23:18 17.4 °C 16.4 °C 1020.2 hPa SW 4.7 km/h 9.7 km/h 94% 0.0 mm 0.00 W/m2
23:23 17.4 °C 16.4 °C 1020.2 hPa SW 3.2 km/h 6.4 km/h 94% 0.0 mm 0.00 W/m2